createdAt,value
2022-12-11T00:02:09.615Z,24.16
2022-12-11T00:04:39.298Z,24.16
2022-12-11T00:07:08.841Z,24.26
2022-12-11T00:09:38.694Z,24.24
2022-12-11T00:12:08.634Z,24.20
2022-12-11T00:14:38.423Z,24.17
2022-12-11T00:17:08.124Z,24.16
2022-12-11T00:19:37.934Z,24.14
2022-12-11T00:22:07.478Z,24.12
2022-12-11T00:24:37.024Z,24.10
2022-12-11T00:27:06.539Z,24.12
2022-12-11T00:29:37.558Z,24.10
2022-12-11T00:32:07.500Z,24.10
2022-12-11T00:34:37.472Z,24.09
2022-12-11T00:37:07.131Z,24.12
2022-12-11T00:39:38.154Z,24.12
2022-12-11T00:42:09.208Z,24.10
2022-12-11T00:44:39.326Z,24.12
2022-12-11T00:47:10.593Z,24.09
2022-12-11T00:49:42.851Z,24.12
2022-12-11T00:52:15.294Z,24.10
2022-12-11T00:54:45.139Z,24.03
2022-12-11T00:57:14.840Z,24.03
2022-12-11T00:59:44.372Z,24.00
2022-12-11T01:02:13.908Z,23.98
2022-12-11T01:04:43.408Z,23.92
2022-12-11T01:07:13.161Z,23.90
2022-12-11T01:10:00.734Z,23.89
2022-12-11T01:12:30.888Z,23.89
2022-12-11T01:15:00.409Z,23.88
2022-12-11T01:17:29.902Z,23.89
2022-12-11T01:19:59.455Z,23.89
2022-12-11T01:22:29.374Z,23.88
2022-12-11T01:25:00.332Z,23.78
2022-12-11T01:27:30.042Z,23.76
2022-12-11T01:29:59.570Z,23.73
2022-12-11T01:32:30.179Z,23.71
2022-12-11T01:35:00.594Z,23.68
2022-12-11T01:37:30.125Z,23.68
2022-12-11T01:39:59.700Z,23.68
2022-12-11T01:42:30.745Z,23.61
2022-12-11T01:45:39.799Z,23.58
2022-12-11T01:48:18.870Z,23.61
2022-12-11T01:50:58.342Z,23.61
2022-12-11T01:53:35.810Z,23.62
2022-12-11T01:56:07.806Z,23.63
2022-12-11T01:58:41.468Z,23.65
2022-12-11T02:01:16.570Z,23.63
2022-12-11T02:03:46.753Z,23.62
2022-12-11T02:06:52.999Z,23.59
2022-12-11T02:09:29.370Z,23.52
2022-12-11T02:12:19.074Z,23.51
2022-12-11T02:15:33.652Z,23.57
2022-12-11T02:18:21.879Z,23.51
2022-12-11T02:21:14.686Z,23.48
2022-12-11T02:23:59.412Z,23.50
2022-12-11T02:26:43.986Z,23.50
2022-12-11T02:29:21.442Z,23.42
2022-12-11T02:32:02.500Z,23.41
2022-12-11T02:34:53.218Z,23.40
2022-12-11T02:37:24.566Z,23.40
2022-12-11T02:39:57.084Z,23.31
2022-12-11T02:42:32.054Z,23.28
2022-12-11T02:45:04.873Z,23.24
2022-12-11T02:47:35.323Z,23.27
2022-12-11T02:50:13.644Z,23.28
2022-12-11T02:52:45.449Z,23.24
2022-12-11T02:55:18.180Z,23.24
2022-12-11T02:57:56.750Z,23.22
2022-12-11T03:00:26.433Z,23.17
2022-12-11T03:02:56.527Z,23.11
2022-12-11T03:05:28.235Z,23.11
2022-12-11T03:07:58.393Z,23.13
2022-12-11T03:10:27.926Z,23.17
2022-12-11T03:12:59.430Z,23.17
2022-12-11T03:15:51.972Z,23.17
2022-12-11T03:18:36.673Z,23.18
2022-12-11T03:21:16.794Z,23.21
2022-12-11T03:23:56.672Z,23.21
2022-12-11T03:26:26.667Z,23.18
2022-12-11T03:29:21.289Z,23.30
2022-12-11T03:32:06.053Z,23.35
2022-12-11T03:34:58.476Z,23.38
2022-12-11T03:37:32.738Z,23.34
2022-12-11T03:40:08.867Z,23.40
2022-12-11T03:42:40.688Z,23.40
2022-12-11T03:45:11.887Z,23.34
2022-12-11T03:47:44.677Z,23.28
2022-12-11T03:50:17.478Z,23.17
2022-12-11T03:52:49.105Z,23.17
2022-12-11T03:55:21.169Z,23.08
2022-12-11T03:57:50.845Z,23.21
2022-12-11T04:00:21.900Z,23.21
2022-12-11T04:03:13.568Z,23.20
2022-12-11T04:05:52.328Z,23.15
2022-12-11T04:08:23.515Z,23.17
2022-12-11T04:11:12.007Z,23.17
2022-12-11T04:13:43.401Z,23.14
2022-12-11T04:16:13.627Z,23.10
2022-12-11T04:19:01.224Z,23.10
2022-12-11T04:21:49.966Z,23.08
2022-12-11T04:24:20.232Z,23.03
2022-12-11T04:26:50.012Z,22.96
2022-12-11T04:29:19.498Z,22.94
2022-12-11T04:31:49.026Z,22.87
2022-12-11T04:34:18.816Z,22.87
2022-12-11T04:36:48.644Z,22.86
2022-12-11T04:39:18.403Z,22.86
2022-12-11T04:41:48.131Z,22.80
2022-12-11T04:44:17.957Z,22.84
2022-12-11T04:46:47.482Z,22.89
2022-12-11T04:49:17.049Z,22.90
2022-12-11T04:51:46.571Z,22.94
2022-12-11T04:54:16.070Z,22.93
2022-12-11T04:56:45.569Z,22.96
2022-12-11T04:59:15.925Z,23.00
2022-12-11T05:01:46.083Z,22.96
2022-12-11T05:04:16.101Z,22.97
2022-12-11T05:06:46.125Z,22.97
2022-12-11T05:09:15.654Z,22.99
2022-12-11T05:11:45.715Z,23.00
2022-12-11T05:14:15.433Z,23.01
2022-12-11T05:16:44.982Z,22.99
2022-12-11T05:19:15.256Z,23.01
2022-12-11T05:21:44.942Z,23.00
2022-12-11T05:24:14.450Z,22.97
2022-12-11T05:26:44.118Z,22.99
2022-12-11T05:29:13.760Z,22.96
2022-12-11T05:31:43.615Z,22.99
2022-12-11T05:34:13.730Z,22.96
2022-12-11T05:36:43.561Z,22.86
2022-12-11T05:39:13.470Z,22.83
2022-12-11T05:41:42.984Z,22.82
2022-12-11T05:44:14.425Z,22.77
2022-12-11T05:46:44.722Z,22.74
2022-12-11T05:49:16.597Z,22.73
2022-12-11T05:51:49.585Z,22.66
2022-12-11T05:54:19.199Z,22.63
2022-12-11T05:56:52.333Z,22.63
2022-12-11T05:59:22.721Z,22.57
2022-12-11T06:01:52.699Z,22.57
2022-12-11T06:04:22.240Z,22.53
2022-12-11T06:06:51.763Z,22.51
2022-12-11T06:09:21.257Z,22.49
2022-12-11T06:11:50.781Z,22.51
2022-12-11T06:14:20.459Z,22.51
2022-12-11T06:16:51.295Z,22.48
2022-12-11T06:19:21.033Z,22.48
2022-12-11T06:21:50.598Z,22.48
2022-12-11T06:24:20.634Z,22.48
2022-12-11T06:26:50.613Z,22.46
2022-12-11T06:29:20.490Z,22.51
2022-12-11T06:31:51.115Z,22.43
2022-12-11T06:34:20.949Z,22.41
2022-12-11T06:36:50.416Z,22.41
2022-12-11T06:39:20.027Z,22.36
2022-12-11T06:41:49.531Z,22.31
2022-12-11T06:44:19.300Z,22.33
2022-12-11T06:46:48.779Z,22.32
2022-12-11T06:49:18.259Z,22.33
2022-12-11T06:51:47.765Z,22.29
2022-12-11T06:54:17.296Z,22.26
2022-12-11T06:56:47.319Z,22.22
2022-12-11T06:59:16.783Z,22.15
2022-12-11T07:01:46.974Z,22.12
2022-12-11T07:04:16.644Z,22.15
2022-12-11T07:06:48.569Z,22.18
2022-12-11T07:09:18.714Z,22.21
2022-12-11T07:11:50.602Z,22.14
2022-12-11T07:14:21.192Z,22.12
2022-12-11T07:16:51.555Z,22.05
2022-12-11T07:19:21.529Z,22.04
2022-12-11T07:21:51.070Z,21.94
2022-12-11T07:24:20.825Z,21.93
2022-12-11T07:26:50.302Z,22.02
2022-12-11T07:29:19.926Z,22.08
2022-12-11T07:31:49.981Z,22.09
2022-12-11T07:34:19.587Z,22.12
2022-12-11T07:36:49.294Z,22.14
2022-12-11T07:39:18.774Z,22.09
2022-12-11T07:41:48.303Z,22.08
2022-12-11T07:44:19.406Z,22.06
2022-12-11T07:46:49.147Z,22.08
2022-12-11T07:49:18.651Z,22.05
2022-12-11T07:51:48.321Z,22.09
2022-12-11T07:54:18.390Z,22.09
2022-12-11T07:56:53.394Z,22.19
2022-12-11T07:59:24.590Z,22.11
2022-12-11T08:01:54.344Z,22.06
2022-12-11T08:04:23.834Z,22.12
2022-12-11T08:06:54.261Z,22.21
2022-12-11T08:09:23.761Z,22.28
2022-12-11T08:11:53.965Z,22.32
2022-12-11T08:14:23.443Z,22.38
2022-12-11T08:16:53.163Z,22.32
2022-12-11T08:19:22.802Z,22.32
2022-12-11T08:21:52.682Z,22.33
2022-12-11T08:24:23.087Z,22.36
2022-12-11T08:26:53.214Z,22.35
2022-12-11T08:29:22.792Z,22.36
2022-12-11T08:31:52.352Z,22.36
2022-12-11T08:34:21.885Z,22.36
2022-12-11T08:36:52.107Z,22.33
2022-12-11T08:39:21.877Z,22.36
2022-12-11T08:41:51.383Z,22.39
2022-12-11T08:44:21.067Z,22.38
2022-12-11T08:46:50.529Z,22.43
2022-12-11T08:49:20.081Z,22.53
2022-12-11T08:51:49.580Z,22.60
2022-12-11T08:54:19.340Z,22.60
2022-12-11T08:56:57.606Z,22.67
2022-12-11T08:59:28.382Z,22.69
2022-12-11T09:01:58.279Z,22.74
2022-12-11T09:04:27.762Z,22.80
2022-12-11T09:06:57.267Z,22.86
2022-12-11T09:09:27.102Z,22.92
2022-12-11T09:11:57.664Z,22.93
2022-12-11T09:14:27.234Z,22.97
2022-12-11T09:16:56.737Z,22.97
2022-12-11T09:19:31.923Z,22.97
2022-12-11T09:22:02.829Z,22.94
2022-12-11T09:24:32.752Z,22.93
2022-12-11T09:27:02.256Z,22.92
2022-12-11T09:29:31.877Z,22.87
2022-12-11T09:32:01.426Z,22.89
2022-12-11T09:34:31.261Z,22.76
2022-12-11T09:37:01.004Z,22.76
2022-12-11T09:39:30.491Z,22.69
2022-12-11T09:42:27.462Z,22.77
2022-12-11T09:45:01.809Z,22.77
2022-12-11T09:47:47.379Z,22.76
2022-12-11T09:50:29.196Z,22.86
2022-12-11T09:53:23.162Z,22.87
2022-12-11T09:56:02.830Z,22.84
2022-12-11T09:58:54.510Z,22.86
2022-12-11T10:01:35.979Z,22.87
2022-12-11T10:04:17.345Z,22.97
2022-12-11T10:07:08.661Z,22.97
2022-12-11T10:09:48.306Z,22.90
2022-12-11T10:12:46.268Z,22.83
2022-12-11T10:15:43.304Z,22.79
2022-12-11T10:18:22.348Z,22.99
2022-12-11T10:20:54.354Z,23.07
2022-12-11T10:23:39.622Z,22.97
2022-12-11T10:26:12.093Z,22.96
2022-12-11T10:28:42.069Z,23.08
2022-12-11T10:31:24.597Z,23.22
2022-12-11T10:34:01.931Z,23.18
2022-12-11T10:36:40.785Z,23.25
2022-12-11T10:39:21.345Z,23.22
2022-12-11T10:41:53.870Z,23.32
2022-12-11T10:44:26.871Z,23.54
2022-12-11T10:47:15.051Z,23.88
2022-12-11T10:49:57.022Z,24.29
2022-12-11T10:52:31.321Z,24.56
2022-12-11T10:55:04.861Z,24.71
2022-12-11T10:57:40.354Z,25.18
2022-12-11T11:00:30.693Z,25.42
2022-12-11T11:03:01.260Z,25.63
2022-12-11T11:05:38.548Z,25.63
2022-12-11T11:08:20.391Z,25.71
2022-12-11T11:11:00.175Z,26.00
2022-12-11T11:13:32.121Z,26.44
2022-12-11T11:16:03.560Z,26.82
2022-12-11T11:18:35.277Z,27.06
2022-12-11T11:21:05.603Z,27.07
2022-12-11T11:23:39.827Z,26.96
2022-12-11T11:26:13.917Z,27.18
2022-12-11T11:28:59.902Z,27.77
2022-12-11T11:31:35.983Z,28.17
2022-12-11T11:34:12.009Z,28.63
2022-12-11T11:36:42.669Z,29.38
2022-12-11T11:39:35.447Z,29.93
2022-12-11T11:42:20.483Z,30.10
2022-12-11T11:45:23.151Z,30.60
2022-12-11T11:48:26.180Z,30.96
2022-12-11T11:50:59.104Z,31.03
2022-12-11T11:53:42.775Z,32.07
2022-12-11T11:56:38.699Z,32.77
2022-12-11T11:59:26.807Z,32.43
2022-12-11T12:01:58.670Z,32.01
2022-12-11T12:04:38.013Z,31.98
2022-12-11T12:07:51.360Z,32.49
2022-12-11T12:10:33.045Z,32.89
2022-12-11T12:13:48.085Z,33.21
2022-12-11T12:16:51.143Z,33.50
2022-12-11T12:19:16.380Z,32.75
2022-12-11T12:21:51.751Z,32.48
2022-12-11T12:24:29.776Z,32.76
2022-12-11T12:27:51.705Z,33.82
2022-12-11T12:30:23.337Z,35.30
2022-12-11T12:33:41.725Z,35.62
2022-12-11T12:36:39.109Z,34.97
2022-12-11T12:39:38.543Z,34.59
2022-12-11T12:42:26.262Z,34.74
2022-12-11T12:45:08.482Z,35.12
2022-12-11T12:47:39.985Z,36.06
2022-12-11T12:50:20.319Z,36.92
2022-12-11T12:52:52.320Z,37.63
2022-12-11T12:55:29.885Z,38.42
2022-12-11T12:58:06.415Z,37.70
2022-12-11T13:00:40.671Z,37.57
2022-12-11T13:03:16.561Z,37.30
2022-12-11T13:06:51.993Z,37.93
2022-12-11T13:09:30.351Z,38.01
2022-12-11T13:12:00.516Z,38.56
2022-12-11T13:14:33.685Z,39.20
2022-12-11T13:17:35.925Z,39.49
2022-12-11T13:20:21.297Z,38.99
2022-12-11T13:23:16.907Z,39.16
2022-12-11T13:25:59.362Z,39.64
2022-12-11T13:28:29.020Z,39.84
2022-12-11T13:31:00.416Z,39.88
2022-12-11T13:33:31.637Z,39.12
2022-12-11T13:36:17.909Z,39.74
2022-12-11T13:39:19.299Z,40.60
2022-12-11T13:41:56.931Z,41.06
2022-12-11T13:44:34.745Z,40.90
2022-12-11T13:47:06.084Z,41.00
2022-12-11T13:49:41.898Z,41.48
2022-12-11T13:52:24.462Z,41.77
2022-12-11T13:54:56.647Z,40.01
2022-12-11T13:57:29.903Z,41.04
2022-12-11T14:00:00.724Z,41.49
2022-12-11T14:02:35.445Z,41.84
2022-12-11T14:05:12.897Z,40.89
2022-12-11T14:07:54.997Z,41.55
2022-12-11T14:10:28.326Z,42.54
2022-12-11T14:12:58.319Z,39.80
2022-12-11T14:15:29.810Z,41.01
2022-12-11T14:18:01.121Z,39.02
2022-12-11T14:20:35.533Z,40.99
2022-12-11T14:23:21.148Z,41.71
2022-12-11T14:26:05.794Z,41.21
2022-12-11T14:28:40.402Z,41.75
2022-12-11T14:31:10.537Z,43.08
2022-12-11T14:33:46.170Z,42.68
2022-12-11T14:36:18.540Z,41.26
2022-12-11T14:38:53.908Z,40.62
2022-12-11T14:41:30.801Z,39.81
2022-12-11T14:44:05.369Z,39.40
2022-12-11T14:46:54.640Z,39.13
2022-12-11T14:49:47.773Z,38.93
2022-12-11T14:52:21.294Z,37.57
2022-12-11T14:55:15.767Z,36.85
2022-12-11T14:57:49.565Z,37.14
2022-12-11T15:00:28.441Z,37.32
2022-12-11T15:03:02.666Z,37.77
2022-12-11T15:05:40.401Z,39.16
2022-12-11T15:08:14.078Z,40.62
2022-12-11T15:11:04.490Z,41.18
2022-12-11T15:13:36.137Z,41.41
2022-12-11T15:16:09.146Z,40.64
2022-12-11T15:18:42.596Z,39.14
2022-12-11T15:21:14.107Z,36.85
2022-12-11T15:23:54.491Z,36.00
2022-12-11T15:26:56.663Z,38.62
2022-12-11T15:29:33.157Z,40.67
2022-12-11T15:32:21.125Z,39.80
2022-12-11T15:34:53.561Z,39.34
2022-12-11T15:37:29.966Z,38.86
2022-12-11T15:40:03.154Z,37.52
2022-12-11T15:42:41.552Z,35.93
2022-12-11T15:45:19.912Z,35.76
2022-12-11T15:47:51.096Z,36.19
2022-12-11T15:50:28.617Z,38.54
2022-12-11T15:52:59.041Z,39.49
2022-12-11T15:55:30.882Z,40.56
2022-12-11T15:58:04.748Z,38.95
2022-12-11T16:00:34.982Z,35.90
2022-12-11T16:03:04.786Z,35.55
2022-12-11T16:05:34.278Z,36.66
2022-12-11T16:08:04.901Z,39.09
2022-12-11T16:10:35.287Z,40.33
2022-12-11T16:13:05.097Z,40.78
2022-12-11T16:15:35.100Z,40.69
2022-12-11T16:18:07.335Z,40.82
2022-12-11T16:20:38.724Z,42.06
2022-12-11T16:23:09.673Z,43.29
2022-12-11T16:25:42.967Z,44.24
2022-12-11T16:28:15.260Z,44.05
2022-12-11T16:30:45.370Z,43.87
2022-12-11T16:33:15.728Z,43.96
2022-12-11T16:35:45.254Z,44.50
2022-12-11T16:38:15.232Z,44.17
2022-12-11T16:40:45.704Z,43.63
2022-12-11T16:43:15.193Z,43.70
2022-12-11T16:45:44.982Z,43.70
2022-12-11T16:48:14.471Z,43.66
2022-12-11T16:50:44.868Z,43.93
2022-12-11T16:53:15.820Z,43.73
2022-12-11T16:55:45.759Z,44.08
2022-12-11T16:58:21.186Z,44.27
2022-12-11T17:00:51.445Z,43.62
2022-12-11T17:03:21.216Z,42.94
2022-12-11T17:05:50.705Z,43.57
2022-12-11T17:08:20.534Z,42.70
2022-12-11T17:10:50.102Z,42.33
2022-12-11T17:13:20.231Z,41.92
2022-12-11T17:15:49.767Z,40.93
2022-12-11T17:18:21.172Z,40.49
2022-12-11T17:20:51.123Z,39.98
2022-12-11T17:23:20.913Z,38.99
2022-12-11T17:25:51.676Z,38.29
2022-12-11T17:28:22.094Z,37.53
2022-12-11T17:30:53.526Z,36.88
2022-12-11T17:33:23.885Z,36.36
2022-12-11T17:35:53.912Z,35.86
2022-12-11T17:38:24.309Z,35.52
2022-12-11T17:40:53.868Z,35.32
2022-12-11T17:43:23.609Z,34.98
2022-12-11T17:45:54.156Z,34.43
2022-12-11T17:48:24.067Z,33.40
2022-12-11T17:50:55.194Z,32.63
2022-12-11T17:53:25.321Z,32.18
2022-12-11T17:55:55.435Z,31.97
2022-12-11T17:58:26.105Z,31.61
2022-12-11T18:00:58.243Z,31.41
2022-12-11T18:03:30.347Z,31.15
2022-12-11T18:06:06.738Z,30.81
2022-12-11T18:08:37.090Z,30.45
2022-12-11T18:11:12.644Z,30.00
2022-12-11T18:13:43.734Z,29.66
2022-12-11T18:16:19.529Z,29.25
2022-12-11T18:18:51.363Z,28.87
2022-12-11T18:21:25.918Z,28.63
2022-12-11T18:23:56.482Z,28.23
2022-12-11T18:26:27.025Z,28.23
2022-12-11T18:28:56.957Z,27.91
2022-12-11T18:31:26.634Z,27.31
2022-12-11T18:33:57.123Z,26.82
2022-12-11T18:36:28.571Z,26.47
2022-12-11T18:38:58.522Z,26.22
2022-12-11T18:41:28.878Z,25.96
2022-12-11T18:43:58.600Z,25.93
2022-12-11T18:46:28.593Z,26.00
2022-12-11T18:48:58.890Z,25.93
2022-12-11T18:51:28.566Z,25.74
2022-12-11T18:53:58.106Z,25.47
2022-12-11T18:56:27.849Z,25.16
2022-12-11T18:58:58.673Z,25.12
2022-12-11T19:01:30.619Z,25.40
2022-12-11T19:04:05.554Z,25.63
2022-12-11T19:06:38.541Z,25.90
2022-12-11T19:09:10.314Z,25.88
2022-12-11T19:11:42.650Z,25.91
2022-12-11T19:14:12.982Z,26.11
2022-12-11T19:16:46.545Z,26.35
2022-12-11T19:19:20.609Z,26.35
2022-12-11T19:21:51.280Z,26.20
2022-12-11T19:24:23.732Z,25.79
2022-12-11T19:26:53.958Z,25.86
2022-12-11T19:29:29.937Z,26.25
2022-12-11T19:32:00.782Z,26.38
2022-12-11T19:34:30.465Z,26.49
2022-12-11T19:36:59.984Z,26.65
2022-12-11T19:39:29.509Z,27.10
2022-12-11T19:41:59.297Z,27.29
2022-12-11T19:44:29.311Z,27.02
2022-12-11T19:46:58.932Z,26.75
2022-12-11T19:49:28.535Z,26.34
2022-12-11T19:51:58.617Z,25.93
2022-12-11T19:54:28.522Z,26.01
2022-12-11T19:56:58.233Z,26.01
2022-12-11T19:59:27.851Z,26.44
2022-12-11T20:01:58.421Z,26.53
2022-12-11T20:04:27.959Z,26.73
2022-12-11T20:06:57.474Z,26.76
2022-12-11T20:09:27.178Z,26.85
2022-12-11T20:11:56.728Z,26.89
2022-12-11T20:14:27.894Z,26.90
2022-12-11T20:17:12.004Z,26.90
2022-12-11T20:19:43.493Z,26.89
2022-12-11T20:22:13.147Z,26.96
2022-12-11T20:24:42.973Z,26.99
2022-12-11T20:27:14.423Z,27.03
2022-12-11T20:29:44.404Z,26.97
2022-12-11T20:32:13.985Z,26.83
2022-12-11T20:34:43.648Z,26.86
2022-12-11T20:37:13.741Z,27.00
2022-12-11T20:39:43.252Z,27.10
2022-12-11T20:42:12.908Z,27.04
2022-12-11T20:44:47.323Z,26.99
2022-12-11T20:47:23.737Z,26.97
2022-12-11T20:49:54.467Z,26.90
2022-12-11T20:52:24.248Z,26.85
2022-12-11T20:54:53.788Z,26.83
2022-12-11T20:57:23.295Z,26.83
2022-12-11T20:59:52.895Z,26.80
2022-12-11T21:02:23.046Z,26.71
2022-12-11T21:04:53.065Z,26.60
2022-12-11T21:07:22.556Z,26.69
2022-12-11T21:09:52.110Z,26.68
2022-12-11T21:12:22.881Z,26.68
2022-12-11T21:14:55.016Z,26.62
2022-12-11T21:17:25.846Z,26.60
2022-12-11T21:19:55.378Z,26.62
2022-12-11T21:22:24.947Z,26.62
2022-12-11T21:24:54.464Z,26.55
2022-12-11T21:27:25.745Z,26.52
2022-12-11T21:29:57.448Z,26.49
2022-12-11T21:32:29.492Z,26.47
2022-12-11T21:35:02.192Z,26.39
2022-12-11T21:37:32.164Z,26.39
2022-12-11T21:40:02.048Z,26.37
2022-12-11T21:42:32.130Z,26.32
2022-12-11T21:47:52.319Z,26.14
2022-12-11T21:50:22.418Z,26.08
2022-12-11T21:52:52.840Z,26.08
2022-12-11T21:55:22.366Z,26.02
2022-12-11T21:57:52.212Z,26.00
2022-12-11T22:00:22.082Z,25.94
2022-12-11T22:02:51.870Z,25.77
2022-12-11T22:05:21.546Z,25.62
2022-12-11T22:07:51.190Z,25.56
2022-12-11T22:10:20.866Z,25.60
2022-12-11T22:12:50.487Z,25.51
2022-12-11T22:15:20.570Z,25.51
2022-12-11T22:17:50.397Z,25.56
2022-12-11T22:20:20.022Z,25.39
2022-12-11T22:22:49.594Z,25.42
2022-12-11T22:25:19.198Z,25.36
2022-12-11T22:27:48.743Z,25.39
2022-12-11T22:30:18.523Z,25.43
2022-12-11T22:32:48.462Z,25.47
2022-12-11T22:35:18.054Z,25.51
2022-12-11T22:37:47.690Z,25.49
2022-12-11T22:40:17.693Z,25.58
2022-12-11T22:42:47.249Z,25.59
2022-12-11T22:45:17.419Z,25.51
2022-12-11T22:47:46.978Z,25.49
2022-12-11T22:50:18.029Z,25.39
2022-12-11T22:52:47.719Z,25.43
2022-12-11T22:55:17.263Z,25.45
2022-12-11T22:57:47.478Z,25.47
2022-12-11T23:00:17.446Z,25.43
2022-12-11T23:02:47.451Z,25.38
2022-12-11T23:05:17.115Z,25.38
2022-12-11T23:07:46.862Z,25.33
2022-12-11T23:10:16.666Z,25.35
2022-12-11T23:12:46.418Z,25.38
2022-12-11T23:15:16.207Z,25.35
2022-12-11T23:17:45.754Z,25.19
2022-12-11T23:20:15.337Z,25.19
2022-12-11T23:22:44.835Z,25.25
2022-12-11T23:25:15.524Z,25.29
2022-12-11T23:27:46.309Z,25.35
2022-12-11T23:30:16.537Z,25.30
2022-12-11T23:32:46.998Z,25.29
2022-12-11T23:35:16.882Z,25.16
2022-12-11T23:37:46.430Z,25.25
2022-12-11T23:40:18.056Z,25.29
2022-12-11T23:42:47.738Z,25.19
2022-12-11T23:45:17.367Z,25.05
2022-12-11T23:47:46.966Z,25.20
2022-12-11T23:50:16.844Z,25.16
2022-12-11T23:52:46.723Z,25.14
2022-12-11T23:55:16.209Z,25.09
2022-12-11T23:57:45.721Z,24.99
